sensor_id;sensor_type;location;lat;lon;timestamp;P1;durP1;ratioP1;P2;durP2;ratioP2
8887;SDS011;4480;52.370;9.748;2023-02-18T00:00:24;4.68;;;2.25;;
8887;SDS011;4480;52.370;9.748;2023-02-18T00:02:51;5.18;;;1.75;;
8887;SDS011;4480;52.370;9.748;2023-02-18T00:05:20;8.18;;;2.05;;
8887;SDS011;4480;52.370;9.748;2023-02-18T00:07:49;9.05;;;1.90;;
8887;SDS011;4480;52.370;9.748;2023-02-18T00:10:16;5.70;;;1.95;;
8887;SDS011;4480;52.370;9.748;2023-02-18T00:12:43;5.55;;;1.92;;
8887;SDS011;4480;52.370;9.748;2023-02-18T00:15:10;8.77;;;2.13;;
8887;SDS011;4480;52.370;9.748;2023-02-18T00:17:37;7.13;;;2.00;;
8887;SDS011;4480;52.370;9.748;2023-02-18T00:20:05;4.57;;;2.45;;
8887;SDS011;4480;52.370;9.748;2023-02-18T00:22:33;5.68;;;1.80;;
8887;SDS011;4480;52.370;9.748;2023-02-18T00:25:01;16.40;;;1.88;;
8887;SDS011;4480;52.370;9.748;2023-02-18T00:27:28;5.60;;;1.52;;
8887;SDS011;4480;52.370;9.748;2023-02-18T00:29:55;5.88;;;1.90;;
8887;SDS011;4480;52.370;9.748;2023-02-18T00:32:23;6.10;;;2.00;;
8887;SDS011;4480;52.370;9.748;2023-02-18T00:34:50;4.05;;;1.63;;
8887;SDS011;4480;52.370;9.748;2023-02-18T00:37:16;4.93;;;1.80;;
8887;SDS011;4480;52.370;9.748;2023-02-18T00:39:43;7.45;;;2.10;;
8887;SDS011;4480;52.370;9.748;2023-02-18T00:42:11;4.97;;;2.35;;
8887;SDS011;4480;52.370;9.748;2023-02-18T00:44:38;6.72;;;2.30;;
8887;SDS011;4480;52.370;9.748;2023-02-18T00:47:05;3.97;;;1.60;;
8887;SDS011;4480;52.370;9.748;2023-02-18T00:49:32;4.65;;;1.67;;
8887;SDS011;4480;52.370;9.748;2023-02-18T00:51:59;7.80;;;1.63;;
8887;SDS011;4480;52.370;9.748;2023-02-18T00:54:26;6.18;;;1.98;;
8887;SDS011;4480;52.370;9.748;2023-02-18T00:56:53;2.05;;;1.13;;
8887;SDS011;4480;52.370;9.748;2023-02-18T00:59:21;4.68;;;1.50;;
8887;SDS011;4480;52.370;9.748;2023-02-18T01:01:47;6.80;;;1.77;;
8887;SDS011;4480;52.370;9.748;2023-02-18T01:04:14;3.88;;;1.45;;
8887;SDS011;4480;52.370;9.748;2023-02-18T01:06:41;6.80;;;1.50;;
8887;SDS011;4480;52.370;9.748;2023-02-18T01:09:08;6.22;;;2.10;;
8887;SDS011;4480;52.370;9.748;2023-02-18T01:11:35;9.05;;;2.05;;
8887;SDS011;4480;52.370;9.748;2023-02-18T01:14:02;6.10;;;2.03;;
8887;SDS011;4480;52.370;9.748;2023-02-18T01:16:30;7.93;;;2.15;;
8887;SDS011;4480;52.370;9.748;2023-02-18T01:18:57;7.93;;;1.52;;
8887;SDS011;4480;52.370;9.748;2023-02-18T01:21:24;6.25;;;1.90;;
8887;SDS011;4480;52.370;9.748;2023-02-18T01:23:51;7.95;;;2.00;;
8887;SDS011;4480;52.370;9.748;2023-02-18T01:26:17;6.50;;;1.67;;
8887;SDS011;4480;52.370;9.748;2023-02-18T01:28:44;5.22;;;1.60;;
8887;SDS011;4480;52.370;9.748;2023-02-18T01:31:12;8.35;;;1.60;;
8887;SDS011;4480;52.370;9.748;2023-02-18T01:33:40;7.18;;;1.70;;
8887;SDS011;4480;52.370;9.748;2023-02-18T01:36:08;8.35;;;1.67;;
8887;SDS011;4480;52.370;9.748;2023-02-18T01:38:36;10.98;;;1.85;;
8887;SDS011;4480;52.370;9.748;2023-02-18T01:41:03;4.00;;;1.50;;
8887;SDS011;4480;52.370;9.748;2023-02-18T01:43:30;4.55;;;1.50;;
8887;SDS011;4480;52.370;9.748;2023-02-18T01:45:58;6.45;;;1.95;;
8887;SDS011;4480;52.370;9.748;2023-02-18T01:48:31;4.45;;;1.45;;
8887;SDS011;4480;52.370;9.748;2023-02-18T01:51:04;6.32;;;1.77;;
8887;SDS011;4480;52.370;9.748;2023-02-18T01:53:38;3.83;;;1.65;;
8887;SDS011;4480;52.370;9.748;2023-02-18T01:56:10;5.13;;;1.73;;
8887;SDS011;4480;52.370;9.748;2023-02-18T01:58:41;6.30;;;2.00;;
8887;SDS011;4480;52.370;9.748;2023-02-18T02:01:08;5.45;;;1.98;;
8887;SDS011;4480;52.370;9.748;2023-02-18T02:03:36;4.55;;;1.80;;
8887;SDS011;4480;52.370;9.748;2023-02-18T02:06:08;5.63;;;2.25;;
8887;SDS011;4480;52.370;9.748;2023-02-18T02:08:39;3.55;;;1.90;;
8887;SDS011;4480;52.370;9.748;2023-02-18T02:11:08;4.05;;;1.40;;
8887;SDS011;4480;52.370;9.748;2023-02-18T02:13:57;3.67;;;1.50;;
8887;SDS011;4480;52.370;9.748;2023-02-18T02:16:42;4.90;;;1.35;;
8887;SDS011;4480;52.370;9.748;2023-02-18T02:19:21;8.43;;;2.78;;
8887;SDS011;4480;52.370;9.748;2023-02-18T02:22:11;10.20;;;1.92;;
8887;SDS011;4480;52.370;9.748;2023-02-18T02:25:05;3.70;;;1.48;;
8887;SDS011;4480;52.370;9.748;2023-02-18T02:30:58;6.95;;;2.28;;
8887;SDS011;4480;52.370;9.748;2023-02-18T02:33:45;6.53;;;1.70;;
8887;SDS011;4480;52.370;9.748;2023-02-18T02:36:26;8.43;;;1.75;;
8887;SDS011;4480;52.370;9.748;2023-02-18T02:39:01;7.15;;;1.50;;
8887;SDS011;4480;52.370;9.748;2023-02-18T02:41:37;5.50;;;1.75;;
8887;SDS011;4480;52.370;9.748;2023-02-18T02:44:12;2.95;;;1.55;;
8887;SDS011;4480;52.370;9.748;2023-02-18T02:46:46;6.05;;;1.70;;
8887;SDS011;4480;52.370;9.748;2023-02-18T02:49:19;4.32;;;1.85;;
8887;SDS011;4480;52.370;9.748;2023-02-18T02:52:00;6.30;;;1.52;;
8887;SDS011;4480;52.370;9.748;2023-02-18T02:54:31;5.10;;;1.85;;
8887;SDS011;4480;52.370;9.748;2023-02-18T02:57:05;7.50;;;2.00;;
8887;SDS011;4480;52.370;9.748;2023-02-18T02:59:34;8.82;;;2.17;;
8887;SDS011;4480;52.370;9.748;2023-02-18T03:02:20;6.20;;;1.80;;
8887;SDS011;4480;52.370;9.748;2023-02-18T03:04:56;5.28;;;2.10;;
8887;SDS011;4480;52.370;9.748;2023-02-18T03:10:34;6.88;;;2.40;;
8887;SDS011;4480;52.370;9.748;2023-02-18T03:13:09;8.27;;;2.40;;
8887;SDS011;4480;52.370;9.748;2023-02-18T03:15:46;9.27;;;2.25;;
8887;SDS011;4480;52.370;9.748;2023-02-18T03:18:20;6.60;;;2.35;;
8887;SDS011;4480;52.370;9.748;2023-02-18T03:20:55;4.82;;;2.10;;
8887;SDS011;4480;52.370;9.748;2023-02-18T03:23:27;5.90;;;2.10;;
8887;SDS011;4480;52.370;9.748;2023-02-18T03:25:59;7.05;;;2.53;;
8887;SDS011;4480;52.370;9.748;2023-02-18T03:28:29;5.60;;;2.40;;
8887;SDS011;4480;52.370;9.748;2023-02-18T03:30:58;13.73;;;3.38;;
8887;SDS011;4480;52.370;9.748;2023-02-18T03:33:30;6.70;;;3.40;;
8887;SDS011;4480;52.370;9.748;2023-02-18T03:36:00;9.48;;;3.05;;
8887;SDS011;4480;52.370;9.748;2023-02-18T03:38:30;9.18;;;4.53;;
8887;SDS011;4480;52.370;9.748;2023-02-18T03:41:03;9.60;;;4.30;;
8887;SDS011;4480;52.370;9.748;2023-02-18T03:43:30;18.75;;;5.90;;
8887;SDS011;4480;52.370;9.748;2023-02-18T03:45:57;8.95;;;5.90;;
8887;SDS011;4480;52.370;9.748;2023-02-18T03:48:24;11.88;;;5.70;;
8887;SDS011;4480;52.370;9.748;2023-02-18T03:50:51;17.05;;;7.43;;
8887;SDS011;4480;52.370;9.748;2023-02-18T03:53:18;11.50;;;7.00;;
8887;SDS011;4480;52.370;9.748;2023-02-18T03:55:46;10.40;;;6.63;;
8887;SDS011;4480;52.370;9.748;2023-02-18T03:58:13;12.68;;;7.32;;
8887;SDS011;4480;52.370;9.748;2023-02-18T04:00:40;15.20;;;8.98;;
8887;SDS011;4480;52.370;9.748;2023-02-18T04:03:06;12.98;;;8.82;;
8887;SDS011;4480;52.370;9.748;2023-02-18T04:05:33;18.38;;;10.00;;
8887;SDS011;4480;52.370;9.748;2023-02-18T04:11:12;23.55;;;10.40;;
8887;SDS011;4480;52.370;9.748;2023-02-18T04:13:39;16.80;;;9.98;;
8887;SDS011;4480;52.370;9.748;2023-02-18T04:16:06;21.17;;;11.15;;
8887;SDS011;4480;52.370;9.748;2023-02-18T04:18:33;21.80;;;11.23;;
8887;SDS011;4480;52.370;9.748;2023-02-18T04:20:59;17.23;;;10.70;;
8887;SDS011;4480;52.370;9.748;2023-02-18T04:23:26;20.30;;;10.85;;
8887;SDS011;4480;52.370;9.748;2023-02-18T04:25:53;23.25;;;10.27;;
8887;SDS011;4480;52.370;9.748;2023-02-18T04:28:21;19.52;;;11.10;;
8887;SDS011;4480;52.370;9.748;2023-02-18T04:30:48;17.17;;;10.32;;
8887;SDS011;4480;52.370;9.748;2023-02-18T04:33:15;16.10;;;11.70;;
8887;SDS011;4480;52.370;9.748;2023-02-18T04:35:42;20.73;;;10.80;;
8887;SDS011;4480;52.370;9.748;2023-02-18T04:38:09;16.45;;;10.57;;
8887;SDS011;4480;52.370;9.748;2023-02-18T04:40:36;20.35;;;11.90;;
8887;SDS011;4480;52.370;9.748;2023-02-18T04:43:03;22.88;;;11.30;;
8887;SDS011;4480;52.370;9.748;2023-02-18T04:45:31;21.27;;;12.27;;
8887;SDS011;4480;52.370;9.748;2023-02-18T04:47:58;23.23;;;12.35;;
8887;SDS011;4480;52.370;9.748;2023-02-18T04:50:25;20.05;;;11.70;;
8887;SDS011;4480;52.370;9.748;2023-02-18T04:52:52;24.52;;;11.48;;
8887;SDS011;4480;52.370;9.748;2023-02-18T04:55:18;30.88;;;12.50;;
8887;SDS011;4480;52.370;9.748;2023-02-18T04:57:45;24.80;;;12.55;;
8887;SDS011;4480;52.370;9.748;2023-02-18T05:00:13;24.50;;;12.15;;
8887;SDS011;4480;52.370;9.748;2023-02-18T05:02:44;21.38;;;12.10;;
8887;SDS011;4480;52.370;9.748;2023-02-18T05:05:12;22.33;;;13.15;;
8887;SDS011;4480;52.370;9.748;2023-02-18T05:07:39;20.10;;;12.30;;
8887;SDS011;4480;52.370;9.748;2023-02-18T05:10:07;25.88;;;13.90;;
8887;SDS011;4480;52.370;9.748;2023-02-18T05:12:34;25.52;;;13.75;;
8887;SDS011;4480;52.370;9.748;2023-02-18T05:15:01;28.25;;;12.45;;
8887;SDS011;4480;52.370;9.748;2023-02-18T05:17:28;27.55;;;13.57;;
8887;SDS011;4480;52.370;9.748;2023-02-18T05:19:57;25.75;;;13.15;;
8887;SDS011;4480;52.370;9.748;2023-02-18T05:22:23;19.88;;;12.32;;
8887;SDS011;4480;52.370;9.748;2023-02-18T05:24:50;23.20;;;12.30;;
8887;SDS011;4480;52.370;9.748;2023-02-18T05:27:17;23.50;;;13.45;;
8887;SDS011;4480;52.370;9.748;2023-02-18T05:29:44;27.02;;;13.52;;
8887;SDS011;4480;52.370;9.748;2023-02-18T05:32:10;25.10;;;14.77;;
8887;SDS011;4480;52.370;9.748;2023-02-18T05:34:37;27.73;;;13.30;;
8887;SDS011;4480;52.370;9.748;2023-02-18T05:37:05;24.63;;;13.30;;
8887;SDS011;4480;52.370;9.748;2023-02-18T05:39:32;22.13;;;13.75;;
8887;SDS011;4480;52.370;9.748;2023-02-18T05:41:59;31.90;;;14.52;;
8887;SDS011;4480;52.370;9.748;2023-02-18T05:44:26;23.80;;;12.40;;
8887;SDS011;4480;52.370;9.748;2023-02-18T05:46:56;28.63;;;14.50;;
8887;SDS011;4480;52.370;9.748;2023-02-18T05:49:23;21.70;;;15.02;;
8887;SDS011;4480;52.370;9.748;2023-02-18T05:51:50;36.67;;;16.05;;
8887;SDS011;4480;52.370;9.748;2023-02-18T05:54:18;28.98;;;15.90;;
8887;SDS011;4480;52.370;9.748;2023-02-18T05:56:44;29.20;;;15.93;;
8887;SDS011;4480;52.370;9.748;2023-02-18T05:59:11;30.13;;;15.73;;
8887;SDS011;4480;52.370;9.748;2023-02-18T06:01:38;38.95;;;17.35;;
8887;SDS011;4480;52.370;9.748;2023-02-18T06:04:06;35.13;;;18.35;;
8887;SDS011;4480;52.370;9.748;2023-02-18T06:06:33;32.03;;;18.42;;
8887;SDS011;4480;52.370;9.748;2023-02-18T06:09:00;33.28;;;17.63;;
8887;SDS011;4480;52.370;9.748;2023-02-18T06:11:28;31.33;;;17.77;;
8887;SDS011;4480;52.370;9.748;2023-02-18T06:13:55;30.92;;;18.77;;
8887;SDS011;4480;52.370;9.748;2023-02-18T06:16:22;35.70;;;18.63;;
8887;SDS011;4480;52.370;9.748;2023-02-18T06:18:49;42.53;;;19.50;;
8887;SDS011;4480;52.370;9.748;2023-02-18T06:21:15;33.90;;;17.60;;
8887;SDS011;4480;52.370;9.748;2023-02-18T06:23:42;31.20;;;18.10;;
8887;SDS011;4480;52.370;9.748;2023-02-18T06:26:09;32.65;;;18.27;;
8887;SDS011;4480;52.370;9.748;2023-02-18T06:28:37;33.85;;;18.23;;
8887;SDS011;4480;52.370;9.748;2023-02-18T06:31:04;39.00;;;19.27;;
8887;SDS011;4480;52.370;9.748;2023-02-18T06:33:31;29.65;;;15.82;;
8887;SDS011;4480;52.370;9.748;2023-02-18T06:35:58;32.35;;;16.20;;
8887;SDS011;4480;52.370;9.748;2023-02-18T06:38:27;34.60;;;15.90;;
8887;SDS011;4480;52.370;9.748;2023-02-18T06:40:54;30.75;;;16.35;;
8887;SDS011;4480;52.370;9.748;2023-02-18T06:43:21;31.50;;;18.08;;
8887;SDS011;4480;52.370;9.748;2023-02-18T06:45:49;33.45;;;17.30;;
8887;SDS011;4480;52.370;9.748;2023-02-18T06:48:16;34.22;;;16.85;;
8887;SDS011;4480;52.370;9.748;2023-02-18T06:50:43;32.30;;;15.77;;
8887;SDS011;4480;52.370;9.748;2023-02-18T06:53:10;30.30;;;14.93;;
8887;SDS011;4480;52.370;9.748;2023-02-18T06:55:37;26.70;;;15.90;;
8887;SDS011;4480;52.370;9.748;2023-02-18T06:58:04;27.25;;;14.82;;
8887;SDS011;4480;52.370;9.748;2023-02-18T07:00:31;33.97;;;14.98;;
8887;SDS011;4480;52.370;9.748;2023-02-18T07:02:59;34.45;;;16.25;;
8887;SDS011;4480;52.370;9.748;2023-02-18T07:05:26;29.38;;;15.57;;
8887;SDS011;4480;52.370;9.748;2023-02-18T07:07:53;31.85;;;15.60;;
8887;SDS011;4480;52.370;9.748;2023-02-18T07:10:19;30.23;;;14.50;;
8887;SDS011;4480;52.370;9.748;2023-02-18T07:12:46;27.08;;;15.10;;
8887;SDS011;4480;52.370;9.748;2023-02-18T07:15:13;28.58;;;15.52;;
8887;SDS011;4480;52.370;9.748;2023-02-18T07:17:41;28.05;;;14.73;;
8887;SDS011;4480;52.370;9.748;2023-02-18T07:20:09;26.52;;;13.75;;
8887;SDS011;4480;52.370;9.748;2023-02-18T07:22:36;23.55;;;12.73;;
8887;SDS011;4480;52.370;9.748;2023-02-18T07:25:03;28.33;;;14.95;;
8887;SDS011;4480;52.370;9.748;2023-02-18T07:27:30;24.13;;;12.95;;
8887;SDS011;4480;52.370;9.748;2023-02-18T07:29:56;24.77;;;13.35;;
8887;SDS011;4480;52.370;9.748;2023-02-18T07:32:23;20.13;;;12.77;;
8887;SDS011;4480;52.370;9.748;2023-02-18T07:34:50;29.35;;;15.45;;
8887;SDS011;4480;52.370;9.748;2023-02-18T07:37:18;26.92;;;15.02;;
8887;SDS011;4480;52.370;9.748;2023-02-18T07:39:45;30.48;;;14.40;;
8887;SDS011;4480;52.370;9.748;2023-02-18T07:42:12;25.75;;;14.43;;
8887;SDS011;4480;52.370;9.748;2023-02-18T07:44:39;24.55;;;15.18;;
8887;SDS011;4480;52.370;9.748;2023-02-18T07:47:07;23.10;;;13.88;;
8887;SDS011;4480;52.370;9.748;2023-02-18T07:49:35;22.77;;;13.95;;
8887;SDS011;4480;52.370;9.748;2023-02-18T07:52:02;22.58;;;14.70;;
8887;SDS011;4480;52.370;9.748;2023-02-18T07:54:30;25.63;;;13.70;;
8887;SDS011;4480;52.370;9.748;2023-02-18T07:56:57;21.73;;;11.43;;
8887;SDS011;4480;52.370;9.748;2023-02-18T07:59:24;20.50;;;11.55;;
8887;SDS011;4480;52.370;9.748;2023-02-18T08:01:51;26.58;;;11.73;;
8887;SDS011;4480;52.370;9.748;2023-02-18T08:04:18;18.85;;;10.88;;
8887;SDS011;4480;52.370;9.748;2023-02-18T08:06:45;20.35;;;11.75;;
8887;SDS011;4480;52.370;9.748;2023-02-18T08:09:13;19.45;;;11.18;;
8887;SDS011;4480;52.370;9.748;2023-02-18T08:11:42;18.23;;;10.45;;
8887;SDS011;4480;52.370;9.748;2023-02-18T08:14:10;15.68;;;9.38;;
8887;SDS011;4480;52.370;9.748;2023-02-18T08:16:37;15.52;;;8.77;;
8887;SDS011;4480;52.370;9.748;2023-02-18T08:19:03;14.45;;;7.68;;
8887;SDS011;4480;52.370;9.748;2023-02-18T08:21:32;10.35;;;6.10;;
8887;SDS011;4480;52.370;9.748;2023-02-18T08:23:59;8.60;;;5.15;;
8887;SDS011;4480;52.370;9.748;2023-02-18T08:26:26;8.27;;;4.75;;
8887;SDS011;4480;52.370;9.748;2023-02-18T08:28:54;8.02;;;4.78;;
8887;SDS011;4480;52.370;9.748;2023-02-18T08:31:22;5.75;;;3.88;;
8887;SDS011;4480;52.370;9.748;2023-02-18T08:33:50;4.97;;;3.45;;
8887;SDS011;4480;52.370;9.748;2023-02-18T08:36:17;4.57;;;3.13;;
8887;SDS011;4480;52.370;9.748;2023-02-18T08:38:44;4.78;;;3.40;;
8887;SDS011;4480;52.370;9.748;2023-02-18T08:41:11;3.85;;;2.90;;
8887;SDS011;4480;52.370;9.748;2023-02-18T08:43:39;5.25;;;2.78;;
8887;SDS011;4480;52.370;9.748;2023-02-18T08:46:08;3.63;;;2.35;;
8887;SDS011;4480;52.370;9.748;2023-02-18T08:48:35;3.72;;;2.97;;
8887;SDS011;4480;52.370;9.748;2023-02-18T08:51:09;3.35;;;2.83;;
8887;SDS011;4480;52.370;9.748;2023-02-18T08:53:40;3.78;;;3.05;;
8887;SDS011;4480;52.370;9.748;2023-02-18T08:56:07;3.88;;;2.70;;
8887;SDS011;4480;52.370;9.748;2023-02-18T08:58:38;4.90;;;2.90;;
8887;SDS011;4480;52.370;9.748;2023-02-18T09:01:05;3.05;;;2.60;;
8887;SDS011;4480;52.370;9.748;2023-02-18T09:03:35;3.70;;;2.95;;
8887;SDS011;4480;52.370;9.748;2023-02-18T09:06:02;2.87;;;2.67;;
8887;SDS011;4480;52.370;9.748;2023-02-18T09:08:29;5.18;;;2.80;;
8887;SDS011;4480;52.370;9.748;2023-02-18T09:10:56;4.00;;;3.10;;
8887;SDS011;4480;52.370;9.748;2023-02-18T09:13:24;3.75;;;2.95;;
8887;SDS011;4480;52.370;9.748;2023-02-18T09:15:55;5.30;;;3.20;;
8887;SDS011;4480;52.370;9.748;2023-02-18T09:18:24;3.22;;;2.40;;
8887;SDS011;4480;52.370;9.748;2023-02-18T09:20:51;3.75;;;2.50;;
8887;SDS011;4480;52.370;9.748;2023-02-18T09:23:21;2.08;;;1.88;;
8887;SDS011;4480;52.370;9.748;2023-02-18T09:25:48;2.88;;;2.42;;
8887;SDS011;4480;52.370;9.748;2023-02-18T09:28:15;1.67;;;1.58;;
8887;SDS011;4480;52.370;9.748;2023-02-18T09:30:41;2.25;;;1.80;;
8887;SDS011;4480;52.370;9.748;2023-02-18T09:33:08;4.30;;;2.07;;
8887;SDS011;4480;52.370;9.748;2023-02-18T09:35:38;2.28;;;2.08;;
8887;SDS011;4480;52.370;9.748;2023-02-18T09:38:06;1.80;;;1.70;;
8887;SDS011;4480;52.370;9.748;2023-02-18T09:40:34;1.55;;;1.17;;
8887;SDS011;4480;52.370;9.748;2023-02-18T09:43:03;1.80;;;1.70;;
8887;SDS011;4480;52.370;9.748;2023-02-18T09:45:31;1.77;;;1.50;;
8887;SDS011;4480;52.370;9.748;2023-02-18T09:47:58;1.97;;;1.37;;
8887;SDS011;4480;52.370;9.748;2023-02-18T09:50:29;2.47;;;1.30;;
8887;SDS011;4480;52.370;9.748;2023-02-18T09:52:59;1.57;;;1.20;;
8887;SDS011;4480;52.370;9.748;2023-02-18T09:55:30;1.43;;;1.33;;
8887;SDS011;4480;52.370;9.748;2023-02-18T09:58:01;1.63;;;1.53;;
8887;SDS011;4480;52.370;9.748;2023-02-18T10:00:30;1.10;;;1.00;;
8887;SDS011;4480;52.370;9.748;2023-02-18T10:03:00;1.13;;;1.03;;
8887;SDS011;4480;52.370;9.748;2023-02-18T10:05:30;1.00;;;0.93;;
8887;SDS011;4480;52.370;9.748;2023-02-18T10:08:01;0.83;;;0.83;;
8887;SDS011;4480;52.370;9.748;2023-02-18T10:10:34;1.20;;;1.10;;
8887;SDS011;4480;52.370;9.748;2023-02-18T10:13:06;1.23;;;1.00;;
8887;SDS011;4480;52.370;9.748;2023-02-18T10:15:39;1.10;;;1.00;;
8887;SDS011;4480;52.370;9.748;2023-02-18T10:18:10;1.60;;;1.20;;
8887;SDS011;4480;52.370;9.748;2023-02-18T10:20:44;1.00;;;0.90;;
8887;SDS011;4480;52.370;9.748;2023-02-18T10:23:13;0.90;;;0.80;;
8887;SDS011;4480;52.370;9.748;2023-02-18T10:25:42;1.10;;;1.00;;
8887;SDS011;4480;52.370;9.748;2023-02-18T10:30:36;1.00;;;0.90;;
8887;SDS011;4480;52.370;9.748;2023-02-18T10:33:12;2.65;;;0.90;;
8887;SDS011;4480;52.370;9.748;2023-02-18T10:35:52;1.15;;;1.00;;
8887;SDS011;4480;52.370;9.748;2023-02-18T10:38:25;1.35;;;1.25;;
8887;SDS011;4480;52.370;9.748;2023-02-18T10:41:05;3.20;;;1.33;;
8887;SDS011;4480;52.370;9.748;2023-02-18T10:43:41;1.45;;;1.33;;
8887;SDS011;4480;52.370;9.748;2023-02-18T10:46:20;1.10;;;1.00;;
8887;SDS011;4480;52.370;9.748;2023-02-18T10:48:59;1.55;;;1.27;;
8887;SDS011;4480;52.370;9.748;2023-02-18T10:51:41;1.85;;;1.10;;
8887;SDS011;4480;52.370;9.748;2023-02-18T10:54:15;2.70;;;1.50;;
8887;SDS011;4480;52.370;9.748;2023-02-18T10:56:45;1.20;;;1.10;;
8887;SDS011;4480;52.370;9.748;2023-02-18T10:59:14;1.30;;;1.20;;
8887;SDS011;4480;52.370;9.748;2023-02-18T11:01:46;1.20;;;1.10;;
8887;SDS011;4480;52.370;9.748;2023-02-18T11:04:25;1.20;;;1.10;;
8887;SDS011;4480;52.370;9.748;2023-02-18T11:07:01;1.15;;;1.05;;
8887;SDS011;4480;52.370;9.748;2023-02-18T11:09:33;1.07;;;0.97;;
8887;SDS011;4480;52.370;9.748;2023-02-18T11:12:06;1.37;;;1.00;;
8887;SDS011;4480;52.370;9.748;2023-02-18T11:14:40;0.90;;;0.80;;
8887;SDS011;4480;52.370;9.748;2023-02-18T11:17:11;1.30;;;1.10;;
8887;SDS011;4480;52.370;9.748;2023-02-18T11:19:42;2.50;;;0.90;;
8887;SDS011;4480;52.370;9.748;2023-02-18T11:22:17;1.37;;;1.27;;
8887;SDS011;4480;52.370;9.748;2023-02-18T11:24:46;1.10;;;1.00;;
8887;SDS011;4480;52.370;9.748;2023-02-18T11:27:18;1.10;;;1.00;;
8887;SDS011;4480;52.370;9.748;2023-02-18T11:29:49;1.23;;;1.10;;
8887;SDS011;4480;52.370;9.748;2023-02-18T11:32:17;1.20;;;1.10;;
8887;SDS011;4480;52.370;9.748;2023-02-18T11:34:44;1.00;;;0.90;;
8887;SDS011;4480;52.370;9.748;2023-02-18T11:37:16;1.55;;;0.80;;
8887;SDS011;4480;52.370;9.748;2023-02-18T11:39:47;1.60;;;1.42;;
8887;SDS011;4480;52.370;9.748;2023-02-18T11:42:17;1.55;;;1.25;;
8887;SDS011;4480;52.370;9.748;2023-02-18T11:44:50;2.00;;;1.60;;
8887;SDS011;4480;52.370;9.748;2023-02-18T11:47:20;1.55;;;1.35;;
8887;SDS011;4480;52.370;9.748;2023-02-18T11:49:58;1.73;;;1.48;;
8887;SDS011;4480;52.370;9.748;2023-02-18T11:52:27;1.55;;;1.45;;
8887;SDS011;4480;52.370;9.748;2023-02-18T11:55:00;1.70;;;1.60;;
8887;SDS011;4480;52.370;9.748;2023-02-18T11:57:29;2.08;;;1.50;;
8887;SDS011;4480;52.370;9.748;2023-02-18T11:59:56;1.60;;;1.40;;
8887;SDS011;4480;52.370;9.748;2023-02-18T12:02:27;1.95;;;1.75;;
8887;SDS011;4480;52.370;9.748;2023-02-18T12:05:00;2.30;;;1.40;;
8887;SDS011;4480;52.370;9.748;2023-02-18T12:07:33;1.67;;;1.58;;
8887;SDS011;4480;52.370;9.748;2023-02-18T12:10:11;1.40;;;1.30;;
8887;SDS011;4480;52.370;9.748;2023-02-18T12:12:45;1.75;;;1.55;;
8887;SDS011;4480;52.370;9.748;2023-02-18T12:15:16;1.88;;;1.27;;
8887;SDS011;4480;52.370;9.748;2023-02-18T12:21:00;0.95;;;0.90;;
8887;SDS011;4480;52.370;9.748;2023-02-18T12:23:49;1.30;;;1.20;;
8887;SDS011;4480;52.370;9.748;2023-02-18T12:26:27;1.73;;;1.40;;
8887;SDS011;4480;52.370;9.748;2023-02-18T12:29:05;1.10;;;1.00;;
8887;SDS011;4480;52.370;9.748;2023-02-18T12:31:45;2.50;;;1.27;;
8887;SDS011;4480;52.370;9.748;2023-02-18T12:34:39;2.78;;;1.25;;
8887;SDS011;4480;52.370;9.748;2023-02-18T12:43:15;2.15;;;1.25;;
8887;SDS011;4480;52.370;9.748;2023-02-18T12:45:56;1.60;;;1.50;;
8887;SDS011;4480;52.370;9.748;2023-02-18T12:48:44;1.50;;;1.30;;
8887;SDS011;4480;52.370;9.748;2023-02-18T12:51:32;2.17;;;1.85;;
8887;SDS011;4480;52.370;9.748;2023-02-18T12:54:16;2.13;;;1.70;;
8887;SDS011;4480;52.370;9.748;2023-02-18T12:57:14;2.10;;;1.85;;
8887;SDS011;4480;52.370;9.748;2023-02-18T13:00:09;1.60;;;1.50;;
8887;SDS011;4480;52.370;9.748;2023-02-18T13:05:46;2.00;;;1.70;;
8887;SDS011;4480;52.370;9.748;2023-02-18T13:08:29;2.47;;;1.73;;
8887;SDS011;4480;52.370;9.748;2023-02-18T13:11:10;1.75;;;1.42;;
8887;SDS011;4480;52.370;9.748;2023-02-18T13:13:46;1.88;;;1.67;;
8887;SDS011;4480;52.370;9.748;2023-02-18T13:16:18;2.72;;;1.92;;
8887;SDS011;4480;52.370;9.748;2023-02-18T13:18:48;3.47;;;2.00;;
8887;SDS011;4480;52.370;9.748;2023-02-18T13:21:24;3.35;;;2.05;;
8887;SDS011;4480;52.370;9.748;2023-02-18T13:23:52;1.85;;;1.75;;
8887;SDS011;4480;52.370;9.748;2023-02-18T13:26:22;4.65;;;1.90;;
8887;SDS011;4480;52.370;9.748;2023-02-18T13:28:51;2.00;;;1.80;;
8887;SDS011;4480;52.370;9.748;2023-02-18T13:31:37;2.10;;;1.90;;
8887;SDS011;4480;52.370;9.748;2023-02-18T13:34:12;2.35;;;2.15;;
8887;SDS011;4480;52.370;9.748;2023-02-18T13:36:48;2.35;;;1.95;;
8887;SDS011;4480;52.370;9.748;2023-02-18T13:39:24;1.98;;;1.70;;
8887;SDS011;4480;52.370;9.748;2023-02-18T13:42:09;2.78;;;2.38;;
8887;SDS011;4480;52.370;9.748;2023-02-18T13:45:03;3.35;;;1.90;;
8887;SDS011;4480;52.370;9.748;2023-02-18T13:48:22;2.40;;;2.20;;
8887;SDS011;4480;52.370;9.748;2023-02-18T13:50:52;4.10;;;2.10;;
8887;SDS011;4480;52.370;9.748;2023-02-18T13:53:21;2.75;;;2.55;;
8887;SDS011;4480;52.370;9.748;2023-02-18T13:55:53;3.13;;;2.30;;
8887;SDS011;4480;52.370;9.748;2023-02-18T13:58:23;2.28;;;2.08;;
8887;SDS011;4480;52.370;9.748;2023-02-18T14:00:55;4.35;;;2.53;;
8887;SDS011;4480;52.370;9.748;2023-02-18T14:03:36;3.63;;;2.97;;
8887;SDS011;4480;52.370;9.748;2023-02-18T14:06:17;2.45;;;2.25;;
8887;SDS011;4480;52.370;9.748;2023-02-18T14:08:46;4.00;;;3.25;;
8887;SDS011;4480;52.370;9.748;2023-02-18T14:11:28;5.13;;;2.83;;
8887;SDS011;4480;52.370;9.748;2023-02-18T14:14:13;4.68;;;3.13;;
8887;SDS011;4480;52.370;9.748;2023-02-18T14:23:10;5.05;;;3.72;;
8887;SDS011;4480;52.370;9.748;2023-02-18T14:26:05;4.78;;;3.72;;
8887;SDS011;4480;52.370;9.748;2023-02-18T14:28:38;4.72;;;2.83;;
8887;SDS011;4480;52.370;9.748;2023-02-18T14:31:26;4.20;;;3.47;;
8887;SDS011;4480;52.370;9.748;2023-02-18T14:34:02;3.75;;;3.30;;
8887;SDS011;4480;52.370;9.748;2023-02-18T14:36:56;5.28;;;3.45;;
8887;SDS011;4480;52.370;9.748;2023-02-18T14:39:34;3.60;;;3.30;;
8887;SDS011;4480;52.370;9.748;2023-02-18T14:42:12;4.88;;;3.60;;
8887;SDS011;4480;52.370;9.748;2023-02-18T14:44:51;7.35;;;3.97;;
8887;SDS011;4480;52.370;9.748;2023-02-18T14:47:34;4.30;;;3.47;;
8887;SDS011;4480;52.370;9.748;2023-02-18T14:50:15;5.38;;;3.88;;
8887;SDS011;4480;52.370;9.748;2023-02-18T14:52:46;4.07;;;3.10;;
8887;SDS011;4480;52.370;9.748;2023-02-18T14:55:17;6.03;;;4.03;;
8887;SDS011;4480;52.370;9.748;2023-02-18T14:57:49;6.68;;;3.60;;
8887;SDS011;4480;52.370;9.748;2023-02-18T15:00:18;5.57;;;4.50;;
8887;SDS011;4480;52.370;9.748;2023-02-18T15:02:47;3.95;;;2.90;;
8887;SDS011;4480;52.370;9.748;2023-02-18T15:05:19;6.95;;;3.83;;
8887;SDS011;4480;52.370;9.748;2023-02-18T15:07:57;7.65;;;4.10;;
8887;SDS011;4480;52.370;9.748;2023-02-18T15:10:30;5.07;;;3.28;;
8887;SDS011;4480;52.370;9.748;2023-02-18T15:13:03;6.53;;;3.35;;
8887;SDS011;4480;52.370;9.748;2023-02-18T15:15:34;5.18;;;3.40;;
8887;SDS011;4480;52.370;9.748;2023-02-18T15:18:01;4.50;;;3.17;;
8887;SDS011;4480;52.370;9.748;2023-02-18T15:20:30;8.38;;;3.53;;
8887;SDS011;4480;52.370;9.748;2023-02-18T15:22:59;6.22;;;3.10;;
8887;SDS011;4480;52.370;9.748;2023-02-18T15:25:26;4.70;;;3.95;;
8887;SDS011;4480;52.370;9.748;2023-02-18T15:27:54;4.43;;;3.65;;
8887;SDS011;4480;52.370;9.748;2023-02-18T15:30:25;6.07;;;4.18;;
8887;SDS011;4480;52.370;9.748;2023-02-18T15:32:54;6.15;;;3.60;;
8887;SDS011;4480;52.370;9.748;2023-02-18T15:35:22;4.60;;;3.60;;
8887;SDS011;4480;52.370;9.748;2023-02-18T15:37:53;5.25;;;4.10;;
8887;SDS011;4480;52.370;9.748;2023-02-18T15:40:22;5.68;;;3.63;;
8887;SDS011;4480;52.370;9.748;2023-02-18T15:42:52;9.88;;;3.85;;
8887;SDS011;4480;52.370;9.748;2023-02-18T15:45:29;5.10;;;3.17;;
8887;SDS011;4480;52.370;9.748;2023-02-18T15:47:58;10.57;;;4.50;;
8887;SDS011;4480;52.370;9.748;2023-02-18T15:50:26;8.25;;;4.63;;
8887;SDS011;4480;52.370;9.748;2023-02-18T15:52:55;12.23;;;4.38;;
8887;SDS011;4480;52.370;9.748;2023-02-18T15:55:25;8.23;;;4.80;;
8887;SDS011;4480;52.370;9.748;2023-02-18T15:57:55;8.25;;;4.30;;
8887;SDS011;4480;52.370;9.748;2023-02-18T16:00:27;6.57;;;4.60;;